createdAt,value
2022-12-25T00:00:57.160Z,104.20
2022-12-25T00:01:57.063Z,94.80
2022-12-25T00:02:57.217Z,85.00
2022-12-25T00:03:57.327Z,86.30
2022-12-25T00:04:57.054Z,85.30
2022-12-25T00:05:56.984Z,75.80
2022-12-25T00:06:56.976Z,74.40
2022-12-25T00:07:56.959Z,70.60
2022-12-25T00:08:56.926Z,70.90
2022-12-25T00:09:56.916Z,71.30
2022-12-25T00:10:56.933Z,70.10
2022-12-25T00:11:56.899Z,84.30
2022-12-25T00:12:56.870Z,73.00
2022-12-25T00:13:56.869Z,75.10
2022-12-25T00:14:56.849Z,62.70
2022-12-25T00:16:20.110Z,66.70
2022-12-25T00:16:56.855Z,64.90
2022-12-25T00:17:56.831Z,86.90
2022-12-25T00:18:56.814Z,75.10
2022-12-25T00:19:56.812Z,76.40
2022-12-25T00:20:56.777Z,77.90
2022-12-25T00:21:56.788Z,84.20
2022-12-25T00:22:56.745Z,77.80
2022-12-25T00:23:56.731Z,81.90
2022-12-25T00:24:56.729Z,74.40
2022-12-25T00:25:56.758Z,79.10
2022-12-25T00:26:56.751Z,76.80
2022-12-25T00:27:56.680Z,68.30
2022-12-25T00:28:56.739Z,70.60
2022-12-25T00:29:56.661Z,84.90
2022-12-25T00:30:56.757Z,82.50
2022-12-25T00:32:11.241Z,70.60
2022-12-25T00:32:56.605Z,66.00
2022-12-25T00:33:56.608Z,71.10
2022-12-25T00:34:57.840Z,81.10
2022-12-25T00:35:56.575Z,64.60
2022-12-25T00:36:57.730Z,68.10
2022-12-25T00:37:56.595Z,79.70
2022-12-25T00:38:56.537Z,73.40
2022-12-25T00:39:56.548Z,82.50
2022-12-25T00:40:56.502Z,70.20
2022-12-25T00:41:56.521Z,81.80
2022-12-25T00:42:56.495Z,72.70
2022-12-25T00:43:56.583Z,74.60
2022-12-25T00:44:56.480Z,71.30
2022-12-25T00:45:56.740Z,69.50
2022-12-25T00:46:56.496Z,60.40
2022-12-25T00:47:56.458Z,69.50
2022-12-25T00:48:56.407Z,66.20
2022-12-25T00:49:56.424Z,67.20
2022-12-25T00:50:56.440Z,66.00
2022-12-25T00:51:56.368Z,66.50
2022-12-25T00:52:56.339Z,56.60
2022-12-25T00:54:17.424Z,68.10
2022-12-25T00:54:56.333Z,54.20
2022-12-25T00:59:28.767Z,63.20
2022-12-25T01:00:29.738Z,63.20
2022-12-25T01:01:29.965Z,57.50
2022-12-25T01:02:29.889Z,64.40
2022-12-25T01:03:29.747Z,62.80
2022-12-25T01:04:29.679Z,60.60
2022-12-25T01:05:29.684Z,66.70
2022-12-25T01:06:29.683Z,57.30
2022-12-25T01:07:29.671Z,56.80
2022-12-25T01:08:29.647Z,58.70
2022-12-25T01:09:29.614Z,62.00
2022-12-25T01:10:29.654Z,59.60
2022-12-25T01:11:29.594Z,66.10
2022-12-25T01:12:29.630Z,57.70
2022-12-25T01:13:29.562Z,58.10
2022-12-25T01:14:29.543Z,55.60
2022-12-25T01:15:29.530Z,53.90
2022-12-25T01:16:29.589Z,60.10
2022-12-25T01:17:29.563Z,60.80
2022-12-25T01:18:29.518Z,55.50
2022-12-25T01:19:29.476Z,61.20
2022-12-25T01:20:29.506Z,50.50
2022-12-25T01:21:29.448Z,53.30
2022-12-25T01:22:29.477Z,46.50
2022-12-25T01:23:29.509Z,54.70
2022-12-25T01:24:29.456Z,60.50
2022-12-25T01:25:29.425Z,50.30
2022-12-25T01:26:29.425Z,53.00
2022-12-25T01:27:29.401Z,57.50
2022-12-25T01:28:29.449Z,53.90
2022-12-25T01:29:29.365Z,47.70
2022-12-25T01:30:29.415Z,51.90
2022-12-25T01:31:29.367Z,51.10
2022-12-25T01:32:29.322Z,44.00
2022-12-25T01:33:29.341Z,54.70
2022-12-25T01:34:29.289Z,53.30
2022-12-25T01:35:29.294Z,48.60
2022-12-25T01:36:29.284Z,50.10
2022-12-25T01:37:29.332Z,48.00
2022-12-25T01:38:29.277Z,56.20
2022-12-25T01:39:29.232Z,52.60
2022-12-25T01:40:29.217Z,47.70
2022-12-25T01:41:29.224Z,48.60
2022-12-25T01:42:29.207Z,49.20
2022-12-25T01:43:29.238Z,50.90
2022-12-25T01:44:29.176Z,50.10
2022-12-25T01:45:29.277Z,53.70
2022-12-25T01:46:29.125Z,45.50
2022-12-25T01:47:29.159Z,53.50
2022-12-25T01:48:29.096Z,47.50
2022-12-25T01:49:29.090Z,42.50
2022-12-25T01:50:29.943Z,49.60
2022-12-25T01:51:29.091Z,62.10
2022-12-25T01:52:29.144Z,51.90
2022-12-25T01:53:29.101Z,44.80
2022-12-25T01:54:29.072Z,50.50
2022-12-25T01:55:29.014Z,51.60
2022-12-25T01:56:29.005Z,49.00
2022-12-25T01:57:29.023Z,50.50
2022-12-25T01:58:28.990Z,47.30
2022-12-25T01:59:28.952Z,43.00
2022-12-25T02:00:29.016Z,47.30
2022-12-25T02:01:29.113Z,46.60
2022-12-25T02:02:29.069Z,52.00
2022-12-25T02:03:28.988Z,38.80
2022-12-25T02:04:28.930Z,43.20
2022-12-25T02:05:28.968Z,59.10
2022-12-25T02:06:29.859Z,51.20
2022-12-25T02:07:29.022Z,49.60
2022-12-25T02:08:28.845Z,47.50
2022-12-25T02:09:28.838Z,39.40
2022-12-25T02:10:28.824Z,42.70
2022-12-25T02:11:28.811Z,41.50
2022-12-25T02:12:28.827Z,45.70
2022-12-25T02:13:28.805Z,46.50
2022-12-25T02:14:28.763Z,45.20
2022-12-25T02:15:28.742Z,46.60
2022-12-25T02:16:28.797Z,43.50
2022-12-25T02:17:28.834Z,44.30
2022-12-25T02:18:28.711Z,48.10
2022-12-25T02:19:28.681Z,43.20
2022-12-25T02:20:28.668Z,37.70
2022-12-25T02:21:28.717Z,33.40
2022-12-25T02:22:28.691Z,41.10
2022-12-25T02:23:28.632Z,38.00
2022-12-25T02:24:28.639Z,33.90
2022-12-25T02:25:28.625Z,44.70
2022-12-25T02:26:28.596Z,43.60
2022-12-25T02:27:28.790Z,38.30
2022-12-25T02:28:28.669Z,47.60
2022-12-25T02:29:28.572Z,43.60
2022-12-25T02:30:28.625Z,35.30
2022-12-25T02:31:28.575Z,40.60
2022-12-25T02:32:29.675Z,38.50
2022-12-25T02:33:28.539Z,36.70
2022-12-25T02:57:57.854Z,28.60
2022-12-25T02:58:56.908Z,28.00
2022-12-25T02:59:56.850Z,31.10
2022-12-25T03:00:56.906Z,36.40
2022-12-25T03:01:57.025Z,34.30
2022-12-25T03:02:56.865Z,28.20
2022-12-25T03:03:56.814Z,30.20
2022-12-25T03:04:56.808Z,25.10
2022-12-25T03:05:56.777Z,28.40
2022-12-25T03:06:56.747Z,32.20
2022-12-25T03:07:56.767Z,22.60
2022-12-25T03:08:56.785Z,27.30
2022-12-25T03:09:56.739Z,26.00
2022-12-25T03:10:55.707Z,33.90
2022-12-25T03:11:56.708Z,25.20
2022-12-25T03:12:56.700Z,26.70
2022-12-25T03:13:56.669Z,24.50
2022-12-25T03:14:56.644Z,25.20
2022-12-25T03:15:56.671Z,24.80
2022-12-25T03:16:56.800Z,24.10
2022-12-25T03:17:56.639Z,26.60
2022-12-25T03:18:56.642Z,25.90
2022-12-25T03:19:56.596Z,22.90
2022-12-25T03:20:56.557Z,21.50
2022-12-25T03:21:56.563Z,21.50
2022-12-25T03:22:56.579Z,23.40
2022-12-25T03:23:56.551Z,32.10
2022-12-25T03:24:56.558Z,20.60
2022-12-25T03:25:56.512Z,21.00
2022-12-25T03:26:56.554Z,26.00
2022-12-25T03:27:57.710Z,21.40
2022-12-25T03:28:56.495Z,25.50
2022-12-25T03:29:56.522Z,22.80
2022-12-25T03:32:08.166Z,20.70
2022-12-25T03:33:36.769Z,23.40
2022-12-25T03:34:09.165Z,19.50
2022-12-25T03:35:09.137Z,23.20
2022-12-25T03:36:09.133Z,15.50
2022-12-25T03:37:09.163Z,16.80
2022-12-25T03:38:09.142Z,23.50
2022-12-25T03:39:09.104Z,16.10
2022-12-25T03:40:09.061Z,21.60
2022-12-25T03:41:09.078Z,24.70
2022-12-25T03:42:09.053Z,20.30
2022-12-25T04:02:50.282Z,14.60
2022-12-25T04:03:49.544Z,13.50
2022-12-25T04:04:49.453Z,16.20
2022-12-25T04:05:49.406Z,14.70
2022-12-25T04:06:49.401Z,15.20
2022-12-25T04:07:49.361Z,19.40
2022-12-25T04:08:49.372Z,17.00
2022-12-25T04:09:49.327Z,18.40
2022-12-25T04:10:49.327Z,17.50
2022-12-25T04:11:49.301Z,16.50
2022-12-25T04:12:49.293Z,18.20
2022-12-25T04:13:49.331Z,16.20
2022-12-25T04:14:49.275Z,12.80
2022-12-25T04:15:49.301Z,17.10
2022-12-25T04:16:49.252Z,19.90
2022-12-25T04:17:49.244Z,17.80
2022-12-25T04:18:49.203Z,23.00
2022-12-25T04:19:49.199Z,19.10
2022-12-25T04:20:49.243Z,11.60
2022-12-25T04:21:49.247Z,16.30
2022-12-25T04:22:49.176Z,19.00
2022-12-25T04:23:49.186Z,15.40
2022-12-25T04:24:49.232Z,13.70
2022-12-25T04:25:49.135Z,18.50
2022-12-25T04:26:49.178Z,17.30
2022-12-25T04:27:49.309Z,15.70
2022-12-25T04:28:49.069Z,18.50
2022-12-25T04:29:49.161Z,16.80
2022-12-25T04:30:49.113Z,15.30
2022-12-25T04:31:49.040Z,15.60
2022-12-25T04:32:49.084Z,23.70
2022-12-25T04:33:49.000Z,16.60
2022-12-25T04:34:49.011Z,17.10
2022-12-25T04:35:48.999Z,18.30
2022-12-25T04:36:48.989Z,14.40
2022-12-25T04:37:48.978Z,16.00
2022-12-25T04:38:49.004Z,16.60
2022-12-25T04:39:49.202Z,16.30
2022-12-25T04:40:49.227Z,11.70
2022-12-25T04:41:48.922Z,20.80
2022-12-25T04:42:48.883Z,16.40
2022-12-25T04:43:48.886Z,18.00
2022-12-25T04:44:48.870Z,27.40
2022-12-25T04:45:48.857Z,18.50
2022-12-25T04:46:48.883Z,16.60
2022-12-25T04:47:48.847Z,17.50
2022-12-25T04:48:48.841Z,14.30
2022-12-25T04:49:48.872Z,14.00
2022-12-25T04:50:48.858Z,16.80
2022-12-25T04:51:48.805Z,17.50
2022-12-25T04:52:48.758Z,14.60
2022-12-25T04:53:48.742Z,15.80
2022-12-25T04:54:48.724Z,14.20
2022-12-25T04:55:48.723Z,14.20
2022-12-25T04:56:48.699Z,12.10
2022-12-25T04:57:48.729Z,11.80
2022-12-25T04:58:48.708Z,15.90
2022-12-25T04:59:48.672Z,13.60
2022-12-25T05:00:48.637Z,19.20
2022-12-25T05:01:48.712Z,15.40
2022-12-25T05:02:48.751Z,16.50
2022-12-25T05:03:48.705Z,12.60
2022-12-25T05:04:48.583Z,16.80
2022-12-25T05:05:48.582Z,16.80
2022-12-25T05:06:48.562Z,13.50
2022-12-25T05:07:48.563Z,15.70
2022-12-25T05:08:48.546Z,15.60
2022-12-25T05:09:48.751Z,12.30
2022-12-25T05:10:48.571Z,16.40
2022-12-25T05:11:48.590Z,13.70
2022-12-25T05:12:48.502Z,12.40
2022-12-25T05:13:48.472Z,15.10
2022-12-25T05:14:48.522Z,20.90
2022-12-25T05:15:48.560Z,16.30
2022-12-25T05:16:48.433Z,12.60
2022-12-25T05:17:48.409Z,15.00
2022-12-25T05:18:48.415Z,16.30
2022-12-25T05:19:48.398Z,17.50
2022-12-25T05:20:48.393Z,12.80
2022-12-25T05:21:48.360Z,16.70
2022-12-25T05:22:48.369Z,12.40
2022-12-25T05:23:48.695Z,11.70
2022-12-25T05:24:48.431Z,14.40
2022-12-25T05:25:48.358Z,20.80
2022-12-25T05:26:48.291Z,18.90
2022-12-25T05:27:53.886Z,14.60
2022-12-25T05:28:48.306Z,15.40
2022-12-25T05:29:48.281Z,15.30
2022-12-25T05:30:48.397Z,15.60
2022-12-25T05:31:48.294Z,14.30
2022-12-25T05:32:48.349Z,15.50
2022-12-25T05:33:48.280Z,17.60
2022-12-25T05:34:48.215Z,14.30
2022-12-25T05:35:48.196Z,13.20
2022-12-25T05:36:48.153Z,15.70
2022-12-25T05:37:48.196Z,12.40
2022-12-25T05:38:48.203Z,18.10
2022-12-25T05:39:48.200Z,17.60
2022-12-25T05:40:48.130Z,16.00
2022-12-25T05:41:48.113Z,13.90
2022-12-25T05:42:48.056Z,20.90
2022-12-25T05:43:48.046Z,19.80
2022-12-25T05:44:48.039Z,12.20
2022-12-25T05:45:48.030Z,14.20
2022-12-25T05:46:48.060Z,16.10
2022-12-25T05:47:48.037Z,16.80
2022-12-25T05:48:48.090Z,13.10
2022-12-25T05:49:48.000Z,13.00
2022-12-25T05:50:47.966Z,15.00
2022-12-25T05:51:47.947Z,18.20
2022-12-25T05:52:47.974Z,18.50
2022-12-25T05:53:47.928Z,17.50
2022-12-25T05:54:47.900Z,19.60
2022-12-25T05:55:47.929Z,20.70
2022-12-25T05:56:47.877Z,15.30
2022-12-25T05:57:47.885Z,15.70
2022-12-25T05:58:47.879Z,19.30
2022-12-25T05:59:47.890Z,15.20
2022-12-25T06:00:47.890Z,21.30
2022-12-25T06:01:47.972Z,19.60
2022-12-25T06:02:48.009Z,24.80
2022-12-25T06:03:47.873Z,21.90
2022-12-25T06:04:47.783Z,20.80
2022-12-25T06:05:47.794Z,15.50
2022-12-25T06:06:47.789Z,22.90
2022-12-25T06:07:47.794Z,16.80
2022-12-25T06:08:47.727Z,22.60
2022-12-25T06:09:47.714Z,20.20
2022-12-25T06:13:38.422Z,21.00
2022-12-25T06:14:37.681Z,19.50
2022-12-25T06:15:37.765Z,21.50
2022-12-25T06:16:38.550Z,20.90
2022-12-25T06:17:37.658Z,18.00
2022-12-25T06:18:37.701Z,23.20
2022-12-25T06:19:37.614Z,18.90
2022-12-25T06:20:37.639Z,21.90
2022-12-25T06:21:37.612Z,23.20
2022-12-25T06:22:37.618Z,25.70
2022-12-25T06:23:37.685Z,24.10
2022-12-25T06:24:37.564Z,24.20
2022-12-25T06:25:37.557Z,20.60
2022-12-25T06:26:37.552Z,26.10
2022-12-25T06:27:37.544Z,18.00
2022-12-25T06:28:37.528Z,22.90
2022-12-25T06:29:37.500Z,21.50
2022-12-25T06:30:37.555Z,24.40
2022-12-25T06:31:37.502Z,29.50
2022-12-25T06:32:37.499Z,25.00
2022-12-25T06:33:37.428Z,27.50
2022-12-25T06:34:37.422Z,24.50
2022-12-25T06:35:37.386Z,23.50
2022-12-25T06:36:37.435Z,20.70
2022-12-25T06:37:37.366Z,21.60
2022-12-25T06:38:37.368Z,21.50
2022-12-25T06:39:37.339Z,19.20
2022-12-25T06:40:37.339Z,20.10
2022-12-25T06:41:37.354Z,24.50
2022-12-25T06:42:37.313Z,23.40
2022-12-25T06:43:37.302Z,22.50
2022-12-25T06:44:37.300Z,21.40
2022-12-25T06:45:37.394Z,17.00
2022-12-25T06:46:37.265Z,18.80
2022-12-25T06:47:37.246Z,25.20
2022-12-25T06:48:37.229Z,25.80
2022-12-25T06:49:37.216Z,26.20
2022-12-25T06:50:37.211Z,22.70
2022-12-25T06:51:37.242Z,20.70
2022-12-25T06:52:37.267Z,18.10
2022-12-25T06:53:39.718Z,21.10
2022-12-25T06:54:37.182Z,22.70
2022-12-25T06:55:37.149Z,21.20
2022-12-25T06:56:37.153Z,19.80
2022-12-25T06:57:37.144Z,24.90
2022-12-25T06:58:37.113Z,21.40
2022-12-25T06:59:37.109Z,29.50
2022-12-25T07:00:37.234Z,26.10
2022-12-25T07:01:37.144Z,20.60
2022-12-25T07:02:37.214Z,26.80
2022-12-25T07:03:37.076Z,27.80
2022-12-25T07:04:37.083Z,28.10
2022-12-25T07:05:37.001Z,23.90
2022-12-25T07:06:36.992Z,25.90
2022-12-25T07:07:36.991Z,32.20
2022-12-25T07:08:37.036Z,21.70
2022-12-25T07:32:26.116Z,29.80
2022-12-25T07:33:25.286Z,31.70
2022-12-25T07:34:25.280Z,27.50
2022-12-25T07:35:25.282Z,32.90
2022-12-25T07:36:25.250Z,29.10
2022-12-25T07:37:25.234Z,31.20
2022-12-25T07:38:25.251Z,28.20
2022-12-25T07:39:25.216Z,47.50
2022-12-25T07:40:25.243Z,49.40
2022-12-25T07:41:25.202Z,57.80
2022-12-25T07:42:25.654Z,62.80
2022-12-25T07:43:25.195Z,60.40
2022-12-25T07:44:25.135Z,59.50
2022-12-25T07:45:25.144Z,50.20
2022-12-25T07:46:25.176Z,47.00
2022-12-25T07:47:25.113Z,45.40
2022-12-25T07:48:25.126Z,45.90
2022-12-25T07:49:25.077Z,40.90
2022-12-25T07:50:25.075Z,39.30
2022-12-25T07:51:25.047Z,35.00
2022-12-25T07:52:25.088Z,39.20
2022-12-25T07:53:25.107Z,32.50
2022-12-25T07:54:25.080Z,35.70
2022-12-25T08:01:06.026Z,30.50
2022-12-25T08:02:05.368Z,37.00
2022-12-25T08:03:05.368Z,30.20
2022-12-25T08:04:05.120Z,26.80
2022-12-25T08:05:05.101Z,30.20
2022-12-25T08:06:05.044Z,26.30
2022-12-25T08:07:05.014Z,30.90
2022-12-25T08:08:05.008Z,27.30
2022-12-25T08:09:05.004Z,29.10
2022-12-25T08:10:05.100Z,25.60
2022-12-25T08:11:04.942Z,30.40
2022-12-25T08:12:04.996Z,27.00
2022-12-25T08:13:10.813Z,32.50
2022-12-25T08:14:04.901Z,30.70
2022-12-25T08:15:04.885Z,29.60
2022-12-25T08:16:04.898Z,27.60
2022-12-25T08:17:04.933Z,32.60
2022-12-25T08:18:04.845Z,27.80
2022-12-25T08:19:04.846Z,27.40
2022-12-25T08:20:04.845Z,23.90
2022-12-25T08:21:04.824Z,29.70
2022-12-25T08:22:04.862Z,27.60
2022-12-25T08:23:04.765Z,30.30
2022-12-25T08:24:04.805Z,27.10
2022-12-25T08:25:04.765Z,29.40
2022-12-25T08:26:05.852Z,30.30
2022-12-25T08:27:04.750Z,29.70
2022-12-25T08:28:04.754Z,32.60
2022-12-25T08:29:04.717Z,30.30
2022-12-25T08:30:04.688Z,29.10
2022-12-25T08:31:04.737Z,32.30
2022-12-25T08:32:04.662Z,28.70
2022-12-25T08:33:04.652Z,22.40
2022-12-25T08:34:04.631Z,21.70
2022-12-25T08:35:04.601Z,25.80
2022-12-25T08:36:04.609Z,20.60
2022-12-25T08:37:04.589Z,25.30
2022-12-25T08:38:04.617Z,27.20
2022-12-25T08:39:04.587Z,28.60
2022-12-25T08:40:04.554Z,31.20
2022-12-25T08:41:04.526Z,37.50
2022-12-25T08:42:04.523Z,29.50
2022-12-25T08:43:04.554Z,26.10
2022-12-25T08:44:04.513Z,27.00
2022-12-25T08:45:04.485Z,28.90
2022-12-25T08:46:04.523Z,24.70
2022-12-25T08:47:04.523Z,24.60
2022-12-25T09:18:44.238Z,25.40
2022-12-25T09:19:41.929Z,24.30
2022-12-25T09:20:41.918Z,24.00
2022-12-25T09:21:41.990Z,22.90
2022-12-25T09:22:41.923Z,25.30
2022-12-25T09:35:10.056Z,25.90
2022-12-25T09:36:11.026Z,21.10
2022-12-25T09:37:10.991Z,19.80
2022-12-25T09:38:11.001Z,22.70
2022-12-25T09:39:10.990Z,20.20
2022-12-25T09:40:10.966Z,24.30
2022-12-25T09:41:10.936Z,17.30
2022-12-25T09:42:10.919Z,21.50
2022-12-25T09:43:10.949Z,26.30
2022-12-25T09:44:10.959Z,21.60
2022-12-25T09:45:10.931Z,24.50
2022-12-25T09:46:10.934Z,24.30
2022-12-25T09:47:10.901Z,20.10
2022-12-25T09:48:10.853Z,22.20
2022-12-25T09:49:10.857Z,23.00
2022-12-25T09:50:10.823Z,27.80
2022-12-25T09:51:10.833Z,23.50
2022-12-25T09:52:10.806Z,21.20
2022-12-25T09:53:10.802Z,25.10
2022-12-25T09:54:10.788Z,20.30
2022-12-25T09:55:14.818Z,20.80
2022-12-25T09:56:10.753Z,25.90
2022-12-25T09:57:10.742Z,24.10
2022-12-25T09:58:10.711Z,22.10
2022-12-25T09:59:10.717Z,20.30
2022-12-25T10:00:10.686Z,24.90
2022-12-25T10:01:10.751Z,17.50
2022-12-25T10:02:10.804Z,21.80
2022-12-25T10:03:10.878Z,22.60
2022-12-25T10:04:10.663Z,20.10
2022-12-25T10:05:10.647Z,18.40
2022-12-25T10:06:10.619Z,20.80
2022-12-25T10:07:10.593Z,19.70
2022-12-25T10:08:10.585Z,18.60
2022-12-25T10:09:10.603Z,17.70
2022-12-25T10:10:10.570Z,19.40
2022-12-25T10:11:10.552Z,18.70
2022-12-25T10:12:10.537Z,25.00
2022-12-25T10:13:10.574Z,21.50
2022-12-25T10:14:10.501Z,17.80
2022-12-25T10:15:10.492Z,24.50
2022-12-25T10:16:10.557Z,24.80
2022-12-25T10:17:10.471Z,31.50
2022-12-25T10:18:10.457Z,27.60
2022-12-25T10:19:10.459Z,27.00
2022-12-25T10:20:10.436Z,21.00
2022-12-25T10:21:13.237Z,18.30
2022-12-25T10:22:10.414Z,18.80
2022-12-25T10:23:10.392Z,22.10
2022-12-25T10:24:10.445Z,25.40
2022-12-25T10:25:10.372Z,23.30
2022-12-25T10:26:10.340Z,26.20
2022-12-25T10:27:10.326Z,22.80
2022-12-25T10:28:10.428Z,20.40
2022-12-25T10:29:31.343Z,24.30
2022-12-25T10:30:10.341Z,24.90
2022-12-25T10:31:10.342Z,23.10
2022-12-25T10:32:10.351Z,21.10
2022-12-25T11:04:01.309Z,17.30
2022-12-25T11:04:39.483Z,13.80
2022-12-25T11:05:39.480Z,13.90
2022-12-25T11:06:39.454Z,14.00
2022-12-25T11:07:39.397Z,17.80
2022-12-25T11:08:39.396Z,16.40
2022-12-25T11:09:39.401Z,15.90
2022-12-25T11:10:39.415Z,16.30
2022-12-25T11:11:39.406Z,18.20
2022-12-25T11:12:39.359Z,15.90
2022-12-25T11:13:39.322Z,13.10
2022-12-25T11:14:39.337Z,17.90
2022-12-25T11:15:39.504Z,13.50
2022-12-25T11:16:39.417Z,18.10
2022-12-25T11:17:39.286Z,17.00
2022-12-25T11:18:39.298Z,16.30
2022-12-25T11:19:39.265Z,13.70
2022-12-25T11:20:45.364Z,16.20
2022-12-25T11:21:39.261Z,26.40
2022-12-25T11:22:39.234Z,14.30
2022-12-25T11:23:39.207Z,13.30
2022-12-25T11:24:39.347Z,15.30
2022-12-25T11:25:39.194Z,14.30
2022-12-25T11:26:39.153Z,15.50
2022-12-25T11:27:39.167Z,17.10
2022-12-25T11:28:39.167Z,15.20
2022-12-25T11:29:39.168Z,23.00
2022-12-25T11:30:39.186Z,15.20
2022-12-25T11:31:39.167Z,13.90
2022-12-25T11:32:39.081Z,14.80
2022-12-25T11:33:39.059Z,15.10
2022-12-25T11:34:39.046Z,16.80
2022-12-25T11:35:39.156Z,16.80
2022-12-25T11:36:40.276Z,16.40
2022-12-25T11:37:39.090Z,16.80
2022-12-25T11:38:39.034Z,20.00
2022-12-25T11:39:38.978Z,15.90
2022-12-25T11:40:39.031Z,18.90
2022-12-25T11:41:38.956Z,18.70
2022-12-25T11:42:38.948Z,21.10
2022-12-25T11:43:38.959Z,20.60
2022-12-25T11:44:38.910Z,19.20
2022-12-25T11:45:43.338Z,19.00
2022-12-25T11:46:38.936Z,16.50
2022-12-25T11:47:38.895Z,16.80
2022-12-25T11:48:38.886Z,16.40
2022-12-25T11:49:38.886Z,14.80
2022-12-25T11:50:38.938Z,17.40
2022-12-25T11:51:39.176Z,15.50
2022-12-25T11:52:38.898Z,18.90
2022-12-25T11:53:38.831Z,15.10
2022-12-25T11:54:38.776Z,21.70
2022-12-25T11:55:38.761Z,20.10
2022-12-25T11:56:38.773Z,15.70
2022-12-25T11:57:38.890Z,18.20
2022-12-25T11:58:38.722Z,31.30
2022-12-25T11:59:38.714Z,17.80
2022-12-25T12:00:38.725Z,20.90
2022-12-25T12:01:38.769Z,19.20
2022-12-25T12:02:38.964Z,21.30
2022-12-25T12:03:38.699Z,17.30
2022-12-25T12:04:42.760Z,16.60
2022-12-25T12:05:38.636Z,20.00
2022-12-25T12:06:38.608Z,22.60
2022-12-25T12:07:38.629Z,15.90
2022-12-25T12:08:38.633Z,22.20
2022-12-25T12:09:38.620Z,19.90
2022-12-25T12:12:07.082Z,20.10
2022-12-25T12:13:08.159Z,23.20
2022-12-25T12:14:08.029Z,17.30
2022-12-25T12:15:07.974Z,18.20
2022-12-25T12:16:08.045Z,23.50
2022-12-25T12:17:07.955Z,20.90
2022-12-25T12:18:07.933Z,23.30
2022-12-25T12:19:07.917Z,27.10
2022-12-25T12:20:07.948Z,33.50
2022-12-25T12:21:07.998Z,23.30
2022-12-25T12:22:07.882Z,25.20
2022-12-25T12:23:07.870Z,26.80
2022-12-25T12:24:07.899Z,24.40
2022-12-25T12:25:07.867Z,24.50
2022-12-25T12:26:07.854Z,21.50
2022-12-25T12:27:07.819Z,23.70
2022-12-25T12:28:07.813Z,25.20
2022-12-25T12:29:07.854Z,21.70
2022-12-25T12:30:07.855Z,29.00
2022-12-25T12:31:07.772Z,26.70
2022-12-25T12:32:07.814Z,28.60
2022-12-25T12:33:07.727Z,23.80
2022-12-25T12:34:07.707Z,28.40
2022-12-25T12:35:07.704Z,31.50
2022-12-25T12:36:07.777Z,27.90
2022-12-25T12:37:07.697Z,25.30
2022-12-25T12:38:07.677Z,24.20
2022-12-25T12:39:07.660Z,26.30
2022-12-25T12:40:07.700Z,20.50
2022-12-25T12:52:25.812Z,21.10
2022-12-25T12:53:26.803Z,23.40
2022-12-25T12:54:26.766Z,25.00
2022-12-25T12:55:26.761Z,20.10
2022-12-25T12:56:26.751Z,17.80
2022-12-25T12:57:26.814Z,27.10
2022-12-25T12:58:26.777Z,23.50
2022-12-25T12:59:26.725Z,23.30
2022-12-25T13:00:26.691Z,21.70
2022-12-25T13:01:26.898Z,20.30
2022-12-25T13:02:26.755Z,23.40
2022-12-25T13:03:26.754Z,21.10
2022-12-25T13:04:26.631Z,18.70
2022-12-25T13:05:34.004Z,24.60
2022-12-25T13:06:26.634Z,23.30
2022-12-25T13:07:26.598Z,25.70
2022-12-25T13:08:26.620Z,24.40
2022-12-25T13:09:26.623Z,27.00
2022-12-25T13:10:26.583Z,28.40
2022-12-25T13:11:26.568Z,23.00
2022-12-25T13:12:26.523Z,26.80
2022-12-25T13:13:26.508Z,25.50
2022-12-25T13:14:26.519Z,23.00
2022-12-25T13:15:26.532Z,22.80
2022-12-25T13:16:26.615Z,27.60
2022-12-25T13:17:26.473Z,26.40
2022-12-25T13:18:25.434Z,29.10
2022-12-25T13:19:26.437Z,24.10
2022-12-25T13:20:26.417Z,22.40
2022-12-25T13:21:26.439Z,27.50
2022-12-25T13:22:26.560Z,26.80
2022-12-25T13:23:26.385Z,25.50
2022-12-25T13:24:26.396Z,23.70
2022-12-25T13:25:26.366Z,31.80
2022-12-25T13:26:26.349Z,30.70
2022-12-25T13:27:28.040Z,29.10
2022-12-25T13:28:26.332Z,26.40
2022-12-25T13:29:26.308Z,23.70
2022-12-25T13:30:26.286Z,28.50
2022-12-25T13:31:26.338Z,26.50
2022-12-25T13:32:26.260Z,26.30
2022-12-25T13:33:26.328Z,29.90
2022-12-25T13:34:26.258Z,27.60
2022-12-25T13:35:26.223Z,26.20
2022-12-25T13:36:26.221Z,28.10
2022-12-25T13:37:26.622Z,21.90
2022-12-25T13:38:26.175Z,21.50
2022-12-25T13:39:26.183Z,20.00
2022-12-25T13:40:26.171Z,21.40
2022-12-25T13:41:26.156Z,27.40
2022-12-25T13:42:26.125Z,29.50
2022-12-25T13:43:26.172Z,26.00
2022-12-25T13:44:26.117Z,20.70
2022-12-25T13:45:26.116Z,23.90
2022-12-25T13:46:26.230Z,25.20
2022-12-25T13:47:26.066Z,26.90
2022-12-25T13:48:26.077Z,23.30
2022-12-25T13:49:26.039Z,30.20
2022-12-25T13:50:26.044Z,24.40
2022-12-25T13:51:26.023Z,21.60
2022-12-25T13:52:25.988Z,27.20
2022-12-25T13:53:26.013Z,29.70
2022-12-25T13:54:26.011Z,24.10
2022-12-25T13:55:25.985Z,25.00
2022-12-25T13:56:25.980Z,26.30
2022-12-25T13:57:25.946Z,24.00
2022-12-25T13:58:25.927Z,19.40
2022-12-25T13:59:25.936Z,22.50
2022-12-25T14:00:25.919Z,23.40
2022-12-25T14:01:25.966Z,22.00
2022-12-25T14:02:26.012Z,20.50
2022-12-25T14:03:25.916Z,25.20
2022-12-25T14:28:33.238Z,29.50
2022-12-25T14:29:33.157Z,27.10
2022-12-25T14:30:33.174Z,32.80
2022-12-25T14:31:33.139Z,33.10
2022-12-25T14:32:33.159Z,29.80
2022-12-25T14:33:33.106Z,31.80
2022-12-25T14:34:33.095Z,34.60
2022-12-25T14:35:33.075Z,29.20
2022-12-25T14:36:33.067Z,29.70
2022-12-25T14:37:33.089Z,32.80
2022-12-25T14:38:33.048Z,30.20
2022-12-25T14:39:33.061Z,27.10
2022-12-25T14:40:33.050Z,27.10
2022-12-25T14:41:33.113Z,35.80
2022-12-25T14:42:33.031Z,32.60
2022-12-25T14:43:32.988Z,28.80
2022-12-25T14:44:32.989Z,31.80
2022-12-25T14:45:32.995Z,27.60
2022-12-25T14:46:33.030Z,28.30
2022-12-25T14:47:32.993Z,33.50
2022-12-25T14:48:32.937Z,33.10
2022-12-25T14:49:33.015Z,32.10
2022-12-25T14:50:32.988Z,33.60
2022-12-25T14:51:32.907Z,33.20
2022-12-25T14:52:32.914Z,32.40
2022-12-25T14:53:32.917Z,30.60
2022-12-25T14:54:32.876Z,37.10
2022-12-25T14:55:32.855Z,34.40
2022-12-25T14:56:32.858Z,33.20
2022-12-25T14:57:32.809Z,33.40
2022-12-25T14:58:32.777Z,35.30
2022-12-25T14:59:32.756Z,32.70
2022-12-25T15:00:32.749Z,34.30
2022-12-25T15:01:32.813Z,35.10
2022-12-25T15:02:32.865Z,33.60
2022-12-25T15:03:32.748Z,34.60
2022-12-25T15:04:32.725Z,38.20
2022-12-25T15:05:32.688Z,39.80
2022-12-25T15:06:32.748Z,33.10
2022-12-25T15:07:32.660Z,34.70
2022-12-25T15:08:32.652Z,29.10
2022-12-25T15:09:32.613Z,33.30
2022-12-25T15:11:32.637Z,27.90
2022-12-25T15:12:32.577Z,27.90
2022-12-25T15:13:32.638Z,32.70
2022-12-25T15:14:32.565Z,35.20
2022-12-25T15:15:32.577Z,36.80
2022-12-25T15:16:32.650Z,39.90
2022-12-25T15:17:32.501Z,41.60
2022-12-25T15:18:32.514Z,45.50
2022-12-25T15:19:37.324Z,41.00
2022-12-25T15:20:32.484Z,39.90
2022-12-25T15:21:32.465Z,36.70
2022-12-25T15:22:53.975Z,35.20
2022-12-25T15:23:32.449Z,36.90
2022-12-25T15:24:32.429Z,42.00
2022-12-25T15:25:32.429Z,54.20
2022-12-25T15:26:32.424Z,42.10
2022-12-25T15:27:32.400Z,32.00
2022-12-25T15:28:32.380Z,40.20
2022-12-25T15:30:07.915Z,40.60
2022-12-25T15:30:32.341Z,44.40
2022-12-25T15:31:32.451Z,39.10
2022-12-25T15:32:32.313Z,41.70
2022-12-25T15:33:32.348Z,38.60
2022-12-25T15:34:32.329Z,44.70
2022-12-25T15:35:32.258Z,43.30
2022-12-25T15:36:32.252Z,38.60
2022-12-25T15:37:32.255Z,45.60
2022-12-25T15:38:32.240Z,43.40
2022-12-25T15:39:32.243Z,51.20
2022-12-25T15:40:32.240Z,44.60
2022-12-25T15:41:32.224Z,49.70
2022-12-25T15:42:33.196Z,59.20
2022-12-25T15:43:40.735Z,46.50
2022-12-25T15:44:32.327Z,41.50
2022-12-25T15:51:27.226Z,47.70
2022-12-25T15:52:01.148Z,49.50
2022-12-25T15:53:02.300Z,56.70
2022-12-25T15:54:01.159Z,74.60
2022-12-25T15:55:01.100Z,65.60
2022-12-25T15:56:01.257Z,49.70
2022-12-25T15:57:01.128Z,52.00
2022-12-25T16:50:19.301Z,54.60
2022-12-25T17:21:47.804Z,183.70
2022-12-25T17:22:48.805Z,172.10
2022-12-25T17:23:48.756Z,165.10
2022-12-25T17:24:48.783Z,168.90
2022-12-25T17:25:48.718Z,147.60
2022-12-25T17:26:48.705Z,147.40
2022-12-25T17:27:49.151Z,144.20
2022-12-25T17:28:48.691Z,140.60
2022-12-25T17:29:48.671Z,143.00
2022-12-25T17:30:48.670Z,139.80